createdAt,value
2018-04-23T00:00:37.625Z,6.00
2018-04-23T00:03:05.916Z,6.30
2018-04-23T00:05:34.195Z,5.43
2018-04-23T00:08:02.474Z,5.50
2018-04-23T00:10:30.766Z,4.67
2018-04-23T00:12:59.051Z,4.30
2018-04-23T00:15:27.326Z,4.47
2018-04-23T00:17:55.614Z,4.27
2018-04-23T00:20:23.890Z,4.30
2018-04-23T00:22:52.182Z,4.57
2018-04-23T00:25:20.463Z,4.63
2018-04-23T00:27:48.754Z,4.43
2018-04-23T00:30:17.039Z,4.37
2018-04-23T00:32:45.307Z,4.60
2018-04-23T00:35:13.595Z,3.70
2018-04-23T00:37:41.858Z,3.50
2018-04-23T00:40:10.146Z,3.77
2018-04-23T00:42:38.415Z,3.83
2018-04-23T00:45:06.702Z,3.40
2018-04-23T00:47:34.974Z,4.07
2018-04-23T00:50:03.259Z,4.10
2018-04-23T00:52:31.538Z,4.23
2018-04-23T00:54:59.822Z,4.17
2018-04-23T00:57:28.094Z,3.73
2018-04-23T00:59:56.395Z,3.93
2018-04-23T01:02:24.661Z,4.00
2018-04-23T01:04:53.914Z,4.47
2018-04-23T01:07:22.194Z,4.40
2018-04-23T01:09:50.470Z,4.87
2018-04-23T01:12:18.774Z,4.03
2018-04-23T01:14:47.051Z,3.03
2018-04-23T01:17:15.586Z,3.27
2018-04-23T01:19:43.863Z,4.03
2018-04-23T01:22:12.136Z,3.50
2018-04-23T01:24:40.410Z,4.37
2018-04-23T01:27:08.696Z,3.40
2018-04-23T01:29:36.987Z,4.30
2018-04-23T01:32:05.263Z,4.00
2018-04-23T01:34:33.543Z,4.07
2018-04-23T01:37:01.817Z,4.40
2018-04-23T01:39:30.098Z,4.60
2018-04-23T01:41:58.370Z,3.63
2018-04-23T01:44:26.657Z,3.60
2018-04-23T01:46:54.937Z,4.33
2018-04-23T01:49:23.234Z,4.60
2018-04-23T01:51:52.530Z,3.60
2018-04-23T01:54:20.802Z,3.67
2018-04-23T01:56:49.087Z,3.93
2018-04-23T01:59:17.392Z,3.63
2018-04-23T02:01:45.654Z,4.40
2018-04-23T02:04:13.930Z,3.87
2018-04-23T02:06:42.212Z,4.33
2018-04-23T02:09:10.495Z,4.03
2018-04-23T02:11:39.598Z,4.63
2018-04-23T02:14:07.891Z,4.43
2018-04-23T02:16:36.164Z,4.77
2018-04-23T02:19:04.454Z,4.47
2018-04-23T02:21:32.731Z,4.30
2018-04-23T02:24:01.000Z,5.00
2018-04-23T02:26:29.286Z,4.10
2018-04-23T02:28:57.557Z,3.80
2018-04-23T02:31:25.831Z,4.30
2018-04-23T02:33:54.111Z,5.07
2018-04-23T02:36:22.398Z,4.40
2018-04-23T02:38:50.667Z,4.80
2018-04-23T02:41:18.962Z,5.10
2018-04-23T02:43:47.240Z,4.83
2018-04-23T02:46:15.519Z,5.57
2018-04-23T02:48:43.810Z,4.37
2018-04-23T02:51:12.084Z,4.23
2018-04-23T02:53:40.371Z,4.50
2018-04-23T02:56:08.642Z,5.40
2018-04-23T02:58:36.945Z,4.97
2018-04-23T03:01:05.266Z,5.00
2018-04-23T03:03:33.567Z,4.37
2018-04-23T03:06:01.841Z,5.13
2018-04-23T03:08:30.155Z,5.07
2018-04-23T03:10:58.439Z,4.33
2018-04-23T03:13:26.710Z,4.53
2018-04-23T03:15:54.999Z,5.30
2018-04-23T03:18:23.278Z,4.83
2018-04-23T03:20:51.554Z,4.20
2018-04-23T03:23:19.833Z,4.20
2018-04-23T03:25:48.124Z,4.53
2018-04-23T03:28:16.451Z,4.47
2018-04-23T03:30:44.741Z,5.90
2018-04-23T03:33:13.013Z,5.03
2018-04-23T03:35:41.312Z,4.57
2018-04-23T03:38:09.582Z,5.73
2018-04-23T03:40:37.879Z,5.33
2018-04-23T03:43:06.158Z,5.80
2018-04-23T03:45:34.446Z,5.50
2018-04-23T03:48:02.722Z,5.70
2018-04-23T03:50:31.030Z,5.40
2018-04-23T03:52:59.277Z,6.07
2018-04-23T03:55:27.555Z,5.30
2018-04-23T03:57:55.838Z,5.30
2018-04-23T04:00:24.106Z,5.30
2018-04-23T04:02:52.394Z,4.70
2018-04-23T04:05:20.673Z,5.73
2018-04-23T04:07:48.961Z,4.27
2018-04-23T04:10:17.247Z,5.63
2018-04-23T04:12:57.416Z,5.50
2018-04-23T04:15:37.362Z,4.70
2018-04-23T04:21:19.705Z,5.40
2018-04-23T04:23:47.998Z,5.73
2018-04-23T04:26:16.286Z,4.97
2018-04-23T04:28:44.574Z,5.93
2018-04-23T04:31:12.855Z,5.03
2018-04-23T04:33:41.130Z,4.80
2018-04-23T04:36:09.410Z,5.67
2018-04-23T04:38:37.696Z,4.83
2018-04-23T04:41:05.979Z,5.53
2018-04-23T04:43:34.310Z,6.60
2018-04-23T04:46:02.557Z,5.43
2018-04-23T04:48:30.837Z,5.20
2018-04-23T04:50:59.123Z,4.73
2018-04-23T04:53:27.414Z,5.40
2018-04-23T04:55:55.688Z,5.30
2018-04-23T04:58:23.973Z,6.37
2018-04-23T05:00:52.640Z,5.73
2018-04-23T05:03:20.926Z,5.20
2018-04-23T05:05:49.206Z,5.13
2018-04-23T05:08:17.484Z,6.27
2018-04-23T05:10:45.774Z,6.10
2018-04-23T05:13:14.078Z,5.57
2018-04-23T05:15:42.378Z,5.47
2018-04-23T05:18:10.672Z,4.50
2018-04-23T05:20:38.959Z,6.20
2018-04-23T05:23:07.252Z,6.13
2018-04-23T05:25:35.534Z,6.60
2018-04-23T05:28:03.810Z,6.30
2018-04-23T05:30:32.087Z,5.70
2018-04-23T05:33:00.366Z,5.87
2018-04-23T05:35:28.642Z,5.40
2018-04-23T05:37:56.933Z,6.70
2018-04-23T05:40:25.202Z,6.77
2018-04-23T05:42:53.489Z,7.47
2018-04-23T05:45:21.771Z,6.40
2018-04-23T05:47:50.063Z,5.20
2018-04-23T05:50:18.363Z,5.77
2018-04-23T05:52:46.666Z,5.93
2018-04-23T05:55:14.941Z,5.33
2018-04-23T05:57:43.222Z,6.17
2018-04-23T06:00:11.510Z,6.33
2018-04-23T06:02:39.790Z,6.57
2018-04-23T06:05:08.134Z,6.70
2018-04-23T06:07:36.397Z,6.73
2018-04-23T06:10:04.695Z,6.30
2018-04-23T06:12:32.974Z,6.50
2018-04-23T06:15:01.259Z,6.10
2018-04-23T06:17:29.547Z,6.40
2018-04-23T06:19:57.818Z,5.73
2018-04-23T06:22:26.112Z,5.70
2018-04-23T06:24:54.385Z,5.67
2018-04-23T06:27:22.663Z,5.23
2018-04-23T06:29:50.953Z,5.30
2018-04-23T06:32:19.226Z,5.57
2018-04-23T06:34:47.530Z,4.87
2018-04-23T06:37:15.814Z,5.53
2018-04-23T06:39:44.118Z,4.70
2018-04-23T06:42:12.403Z,5.70
2018-04-23T06:44:40.687Z,4.80
2018-04-23T06:47:08.962Z,4.80
2018-04-23T06:49:37.252Z,4.90
2018-04-23T06:52:05.519Z,4.63
2018-04-23T06:54:33.792Z,4.93
2018-04-23T06:57:02.067Z,4.60
2018-04-23T06:59:30.342Z,4.20
2018-04-23T07:01:58.645Z,4.33
2018-04-23T07:04:26.923Z,5.30
2018-04-23T07:06:55.198Z,4.17
2018-04-23T07:09:23.475Z,4.40
2018-04-23T07:11:51.753Z,4.57
2018-04-23T07:14:20.068Z,4.73
2018-04-23T07:16:48.344Z,4.30
2018-04-23T07:19:16.618Z,4.10
2018-04-23T07:21:44.927Z,4.80
2018-04-23T07:24:13.255Z,4.13
2018-04-23T07:26:42.363Z,3.87
2018-04-23T07:29:10.639Z,4.20
2018-04-23T07:31:38.919Z,4.27
2018-04-23T07:34:07.210Z,4.27
2018-04-23T07:36:35.487Z,4.23
2018-04-23T07:39:03.777Z,4.47
2018-04-23T07:41:32.052Z,4.87
2018-04-23T07:44:00.329Z,4.53
2018-04-23T07:46:28.610Z,4.80
2018-04-23T07:48:56.898Z,4.07
2018-04-23T07:51:25.191Z,5.10
2018-04-23T07:53:53.474Z,5.03
2018-04-23T07:56:21.753Z,5.40
2018-04-23T07:58:50.055Z,4.80
2018-04-23T08:01:18.330Z,4.53
2018-04-23T08:03:46.622Z,4.70
2018-04-23T08:06:14.926Z,5.30
2018-04-23T08:08:43.204Z,4.37
2018-04-23T08:11:11.495Z,5.00
2018-04-23T08:13:39.778Z,5.73
2018-04-23T08:16:08.095Z,4.90
2018-04-23T08:18:36.382Z,5.10
2018-04-23T08:21:04.663Z,4.77
2018-04-23T08:23:33.877Z,5.20
2018-04-23T08:26:02.147Z,4.83
2018-04-23T08:28:30.438Z,4.70
2018-04-23T08:30:58.734Z,5.20
2018-04-23T08:33:27.154Z,4.50
2018-04-23T08:35:55.455Z,5.40
2018-04-23T08:38:23.732Z,4.90
2018-04-23T08:40:52.026Z,4.73
2018-04-23T08:43:20.302Z,5.63
2018-04-23T08:45:48.594Z,5.73
2018-04-23T08:48:16.892Z,5.50
2018-04-23T08:50:45.174Z,5.83
2018-04-23T08:53:13.456Z,5.97
2018-04-23T08:55:41.724Z,5.67
2018-04-23T08:58:10.030Z,4.70
2018-04-23T09:00:38.310Z,6.10
2018-04-23T09:03:06.858Z,5.37
2018-04-23T09:05:35.145Z,5.97
2018-04-23T09:08:03.435Z,4.93
2018-04-23T09:10:31.721Z,6.00
2018-04-23T09:13:00.015Z,6.17
2018-04-23T09:15:28.306Z,6.73
2018-04-23T09:17:56.588Z,7.10
2018-04-23T09:20:24.865Z,6.63
2018-04-23T09:22:53.161Z,7.00
2018-04-23T09:25:21.439Z,6.83
2018-04-23T09:27:49.759Z,6.87
2018-04-23T09:30:18.034Z,7.17
2018-04-23T09:32:46.321Z,6.80
2018-04-23T09:35:14.625Z,7.67
2018-04-23T09:37:42.898Z,7.80
2018-04-23T09:40:11.191Z,7.07
2018-04-23T09:42:39.470Z,8.73
2018-04-23T09:45:07.751Z,8.63
2018-04-23T09:47:37.639Z,8.50
2018-04-23T09:50:05.985Z,7.20
2018-04-23T09:52:34.245Z,8.00
2018-04-23T09:55:02.519Z,8.23
2018-04-23T09:57:30.811Z,8.07
2018-04-23T10:00:00.103Z,8.50
2018-04-23T10:02:28.374Z,8.50
2018-04-23T10:04:56.663Z,9.00
2018-04-23T10:07:24.949Z,10.50
2018-04-23T10:09:53.250Z,10.27
2018-04-23T10:12:21.546Z,10.23
2018-04-23T10:14:49.863Z,10.40
2018-04-23T10:17:18.176Z,12.23
2018-04-23T10:19:46.463Z,13.07
2018-04-23T10:22:14.766Z,11.43
2018-04-23T10:24:43.054Z,11.33
2018-04-23T10:27:11.351Z,12.60
2018-04-23T10:29:39.643Z,14.20
2018-04-23T10:32:07.955Z,13.10
2018-04-23T10:34:36.246Z,12.63
2018-04-23T10:37:04.527Z,12.97
2018-04-23T10:39:32.838Z,12.53
2018-04-23T10:42:01.131Z,13.13
2018-04-23T10:44:29.433Z,11.70
2018-04-23T10:46:57.703Z,12.67
2018-04-23T10:49:26.018Z,14.03
2018-04-23T10:51:54.314Z,13.30
2018-04-23T10:54:22.620Z,11.40
2018-04-23T10:56:50.917Z,12.27
2018-04-23T10:59:19.202Z,13.53
2018-04-23T11:01:47.519Z,12.10
2018-04-23T11:04:15.807Z,10.80
2018-04-23T11:06:44.258Z,11.20
2018-04-23T11:09:12.550Z,10.27
2018-04-23T11:11:40.842Z,11.37
2018-04-23T11:14:09.144Z,9.80
2018-04-23T11:16:37.422Z,10.40
2018-04-23T11:19:05.703Z,8.07
2018-04-23T11:21:33.999Z,9.03
2018-04-23T11:24:02.274Z,9.17
2018-04-23T11:26:30.599Z,8.40
2018-04-23T11:28:58.950Z,8.30
2018-04-23T11:31:27.227Z,9.00
2018-04-23T11:33:55.517Z,9.87
2018-04-23T11:36:23.852Z,7.60
2018-04-23T11:38:52.115Z,8.63
2018-04-23T11:41:20.399Z,9.27
2018-04-23T11:43:48.681Z,8.97
2018-04-23T11:46:16.975Z,9.53
2018-04-23T11:48:45.258Z,10.23
2018-04-23T11:51:13.550Z,8.57
2018-04-23T11:53:41.837Z,7.93
2018-04-23T11:56:10.120Z,8.77
2018-04-23T11:58:38.401Z,8.03
2018-04-23T12:01:06.694Z,8.07
2018-04-23T12:03:34.978Z,8.27
2018-04-23T12:06:03.266Z,7.40
2018-04-23T12:08:31.559Z,8.17
2018-04-23T12:10:59.841Z,7.10
2018-04-23T12:13:28.151Z,6.87
2018-04-23T12:15:56.418Z,7.00
2018-04-23T12:18:24.723Z,7.17
2018-04-23T12:20:53.001Z,5.90
2018-04-23T12:23:21.951Z,6.73
2018-04-23T12:25:50.497Z,5.70
2018-04-23T12:28:18.766Z,4.80
2018-04-23T12:30:47.048Z,5.77
2018-04-23T12:33:15.331Z,5.37
2018-04-23T12:35:43.602Z,4.60
2018-04-23T12:38:11.915Z,5.87
2018-04-23T12:40:40.182Z,4.87
2018-04-23T12:43:08.458Z,5.20
2018-04-23T12:45:36.743Z,5.30
2018-04-23T12:48:05.011Z,5.53
2018-04-23T12:50:33.310Z,5.17
2018-04-23T12:53:01.589Z,5.30
2018-04-23T12:55:29.859Z,4.80
2018-04-23T12:57:58.147Z,4.97
2018-04-23T13:00:26.423Z,4.73
2018-04-23T13:02:54.702Z,4.97
2018-04-23T13:05:22.978Z,4.73
2018-04-23T13:07:51.251Z,4.70
2018-04-23T13:10:19.546Z,5.10
2018-04-23T13:12:47.970Z,5.30
2018-04-23T13:15:16.253Z,4.67
2018-04-23T13:17:44.531Z,4.63
2018-04-23T13:20:12.807Z,5.40
2018-04-23T13:22:41.087Z,5.00
2018-04-23T13:25:09.362Z,5.00
2018-04-23T13:27:37.650Z,5.30
2018-04-23T13:30:05.931Z,4.53
2018-04-23T13:32:34.202Z,4.43
2018-04-23T13:35:02.483Z,4.77
2018-04-23T13:37:30.759Z,4.13
2018-04-23T13:39:59.039Z,4.20
2018-04-23T13:42:27.361Z,4.30
2018-04-23T13:44:55.846Z,4.63
2018-04-23T13:47:24.125Z,4.10
2018-04-23T13:49:52.432Z,4.20
2018-04-23T13:52:20.709Z,4.20
2018-04-23T13:54:48.978Z,4.20
2018-04-23T13:57:17.278Z,3.77
2018-04-23T13:59:45.551Z,4.00
2018-04-23T14:02:13.847Z,3.60
2018-04-23T14:04:42.122Z,3.90
2018-04-23T14:07:10.402Z,4.37
2018-04-23T14:09:38.679Z,3.37
2018-04-23T14:12:06.954Z,3.67
2018-04-23T14:14:35.244Z,3.27
2018-04-23T14:17:03.513Z,3.20
2018-04-23T14:19:31.821Z,3.10
2018-04-23T14:22:00.094Z,3.17
2018-04-23T14:24:29.050Z,3.53
2018-04-23T14:26:57.330Z,3.37
2018-04-23T14:29:25.595Z,2.70
2018-04-23T14:31:53.977Z,3.20
2018-04-23T14:34:22.258Z,3.40
2018-04-23T14:36:50.530Z,2.77
2018-04-23T14:39:18.838Z,2.27
2018-04-23T14:41:47.108Z,3.27
2018-04-23T14:44:15.405Z,2.60
2018-04-23T14:46:43.754Z,2.27
2018-04-23T14:49:12.047Z,2.43
2018-04-23T14:51:40.323Z,2.23
2018-04-23T14:54:08.599Z,3.17
2018-04-23T14:56:36.885Z,2.53
2018-04-23T14:59:05.169Z,2.83
2018-04-23T15:01:33.811Z,2.63
2018-04-23T15:04:02.098Z,3.97
2018-04-23T15:06:30.398Z,3.60
2018-04-23T15:08:59.376Z,4.30
2018-04-23T15:11:27.654Z,3.67
2018-04-23T15:13:55.941Z,3.70
2018-04-23T15:16:24.212Z,4.57
2018-04-23T15:18:52.494Z,4.10
2018-04-23T15:21:20.774Z,4.37
2018-04-23T15:23:49.066Z,4.80
2018-04-23T15:26:17.346Z,4.60
2018-04-23T15:28:45.623Z,3.83
2018-04-23T15:31:13.912Z,4.53
2018-04-23T15:33:42.296Z,4.80
2018-04-23T15:36:10.567Z,4.30
2018-04-23T15:38:38.846Z,4.20
2018-04-23T15:41:07.149Z,4.43
2018-04-23T15:43:35.405Z,4.30
2018-04-23T15:46:03.685Z,4.97
2018-04-23T15:48:31.954Z,5.20
2018-04-23T15:51:00.263Z,5.73
2018-04-23T15:53:28.546Z,5.53
2018-04-23T15:55:56.841Z,5.30
2018-04-23T15:58:37.414Z,5.27
2018-04-23T16:01:05.702Z,5.50
2018-04-23T16:03:33.974Z,5.60
2018-04-23T16:06:02.256Z,4.90
2018-04-23T16:08:30.548Z,5.50
2018-04-23T16:10:58.830Z,6.20
2018-04-23T16:13:27.118Z,6.37
2018-04-23T16:15:55.387Z,5.63
2018-04-23T16:18:23.658Z,5.33
2018-04-23T16:20:51.963Z,6.40
2018-04-23T16:23:20.248Z,6.50
2018-04-23T16:25:48.554Z,6.07
2018-04-23T16:28:16.903Z,6.50
2018-04-23T16:30:45.187Z,5.40
2018-04-23T16:33:13.479Z,5.60
2018-04-23T16:35:41.767Z,5.47
2018-04-23T16:38:10.083Z,5.07
2018-04-23T16:40:38.340Z,5.27
2018-04-23T16:43:06.659Z,5.30
2018-04-23T16:45:34.934Z,5.60
2018-04-23T16:48:03.255Z,5.53
2018-04-23T16:50:31.642Z,5.33
2018-04-23T16:52:59.923Z,5.67
2018-04-23T16:55:28.195Z,5.40
2018-04-23T16:57:57.420Z,5.30
2018-04-23T17:00:25.686Z,5.00
2018-04-23T17:02:54.094Z,4.90
2018-04-23T17:05:22.374Z,4.50
2018-04-23T17:07:51.012Z,4.50
2018-04-23T17:10:19.289Z,4.60
2018-04-23T17:12:47.562Z,4.27
2018-04-23T17:15:15.850Z,4.00
2018-04-23T17:17:44.129Z,4.53
2018-04-23T17:20:12.431Z,4.60
2018-04-23T17:22:40.719Z,5.20
2018-04-23T17:25:09.011Z,4.80
2018-04-23T17:27:37.289Z,4.60
2018-04-23T17:30:05.563Z,4.87
2018-04-23T17:32:34.312Z,4.27
2018-04-23T17:35:02.545Z,4.57
2018-04-23T17:37:30.810Z,4.30
2018-04-23T17:39:59.093Z,4.10
2018-04-23T17:42:27.373Z,4.20
2018-04-23T17:44:55.914Z,3.90
2018-04-23T17:47:24.186Z,4.10
2018-04-23T17:49:52.464Z,3.83
2018-04-23T17:52:20.754Z,4.00
2018-04-23T17:54:49.087Z,3.87
2018-04-23T17:57:17.399Z,4.30
2018-04-23T17:59:45.686Z,4.43
2018-04-23T18:02:13.959Z,4.37
2018-04-23T18:04:42.276Z,4.37
2018-04-23T18:07:10.538Z,4.60
2018-04-23T18:09:38.876Z,4.47
2018-04-23T18:12:07.148Z,4.03
2018-04-23T18:14:35.424Z,3.87
2018-04-23T18:17:03.715Z,3.83
2018-04-23T18:19:31.994Z,3.40
2018-04-23T18:22:00.552Z,3.80
2018-04-23T18:24:28.863Z,3.80
2018-04-23T18:26:57.146Z,3.97
2018-04-23T18:29:25.438Z,3.87
2018-04-23T18:31:56.037Z,3.83
2018-04-23T18:34:24.307Z,3.23
2018-04-23T18:36:52.590Z,4.67
2018-04-23T18:39:20.875Z,3.83
2018-04-23T18:41:49.155Z,3.97
2018-04-23T18:44:17.426Z,3.73
2018-04-23T18:46:46.630Z,4.20
2018-04-23T18:49:14.907Z,4.10
2018-04-23T18:51:43.182Z,4.77
2018-04-23T18:54:11.466Z,3.60
2018-04-23T18:56:39.745Z,4.63
2018-04-23T18:59:08.025Z,3.60
2018-04-23T19:01:36.301Z,3.67
2018-04-23T19:04:04.582Z,3.57
2018-04-23T19:06:32.853Z,3.73
2018-04-23T19:09:01.151Z,3.70
2018-04-23T19:11:29.457Z,3.07
2018-04-23T19:13:57.726Z,3.63
2018-04-23T19:16:26.051Z,4.07
2018-04-23T19:18:54.316Z,3.73
2018-04-23T19:21:22.729Z,2.93
2018-04-23T19:23:51.046Z,3.60
2018-04-23T19:26:19.321Z,4.10
2018-04-23T19:28:47.606Z,3.50
2018-04-23T19:31:15.883Z,4.50
2018-04-23T19:33:44.190Z,2.90
2018-04-23T19:36:12.456Z,3.00
2018-04-23T19:38:40.825Z,3.63
2018-04-23T19:41:09.015Z,3.37
2018-04-23T19:43:37.286Z,3.30
2018-04-23T19:46:05.581Z,2.70
2018-04-23T19:48:33.838Z,3.73
2018-04-23T19:51:03.076Z,3.20
2018-04-23T19:53:31.376Z,3.60
2018-04-23T19:55:59.651Z,2.70
2018-04-23T19:58:27.936Z,3.70
2018-04-23T20:00:56.206Z,3.77
2018-04-23T20:03:24.490Z,3.60
2018-04-23T20:05:52.786Z,3.50
2018-04-23T20:08:21.055Z,2.87
2018-04-23T20:10:49.342Z,3.57
2018-04-23T20:13:17.614Z,3.30
2018-04-23T20:15:45.931Z,3.10
2018-04-23T20:18:17.829Z,3.90
2018-04-23T20:20:46.130Z,3.23
2018-04-23T20:23:14.504Z,3.43
2018-04-23T20:25:42.869Z,3.07
2018-04-23T20:28:11.142Z,3.70
2018-04-23T20:30:39.417Z,2.77
2018-04-23T20:33:07.827Z,3.90
2018-04-23T20:35:36.108Z,3.73
2018-04-23T20:38:04.394Z,4.07
2018-04-23T20:40:32.745Z,3.37
2018-04-23T20:43:01.004Z,3.10
2018-04-23T20:45:29.282Z,2.90
2018-04-23T20:47:57.555Z,2.50
2018-04-23T20:50:25.848Z,2.77
2018-04-23T20:52:54.123Z,2.50
2018-04-23T20:55:22.403Z,2.87
2018-04-23T20:57:50.692Z,3.13
2018-04-23T21:00:18.975Z,3.00
2018-04-23T21:02:47.253Z,4.30
2018-04-23T21:05:15.526Z,2.93
2018-04-23T21:07:43.810Z,3.70
2018-04-23T21:10:12.082Z,3.20
2018-04-23T21:12:40.400Z,3.90
2018-04-23T21:15:08.655Z,2.77
2018-04-23T21:17:37.871Z,2.80
2018-04-23T21:20:06.150Z,3.40
2018-04-23T21:22:34.425Z,3.43
2018-04-23T21:25:02.698Z,2.50
2018-04-23T21:27:30.978Z,3.47
2018-04-23T21:29:59.250Z,3.40
2018-04-23T21:32:27.527Z,3.60
2018-04-23T21:34:55.801Z,3.60
2018-04-23T21:37:24.087Z,3.17
2018-04-23T21:39:52.354Z,3.20
2018-04-23T21:42:20.637Z,4.17
2018-04-23T21:44:48.909Z,3.83
2018-04-23T21:47:17.186Z,3.97
2018-04-23T21:49:45.619Z,3.47
2018-04-23T21:52:14.471Z,3.57
2018-04-23T21:54:42.763Z,3.40
2018-04-23T21:57:11.041Z,2.90
2018-04-23T21:59:39.335Z,3.47
2018-04-23T22:02:08.006Z,2.93
2018-04-23T22:04:36.270Z,3.33
2018-04-23T22:07:04.558Z,3.67
2018-04-23T22:09:32.834Z,2.53
2018-04-23T22:12:01.122Z,2.50
2018-04-23T22:14:29.401Z,2.63
2018-04-23T22:16:57.774Z,3.40
2018-04-23T22:19:25.962Z,3.20
2018-04-23T22:21:54.278Z,3.10
2018-04-23T22:24:22.558Z,2.53
2018-04-23T22:26:50.834Z,2.80
2018-04-23T22:29:19.118Z,3.30
2018-04-23T22:31:47.390Z,2.30
2018-04-23T22:34:15.803Z,3.20
2018-04-23T22:36:44.050Z,2.50
2018-04-23T22:39:12.323Z,2.73
2018-04-23T22:41:40.603Z,2.97
2018-04-23T22:44:08.870Z,2.63
2018-04-23T22:46:37.154Z,3.23
2018-04-23T22:49:05.426Z,3.17
2018-04-23T22:51:33.699Z,3.40
2018-04-23T22:54:01.988Z,2.50
2018-04-23T22:56:30.252Z,3.27
2018-04-23T22:58:58.539Z,3.37
2018-04-23T23:01:26.810Z,2.77
2018-04-23T23:03:55.086Z,2.93
2018-04-23T23:06:23.357Z,3.10
2018-04-23T23:08:51.658Z,1.77
2018-04-23T23:11:19.916Z,3.30
2018-04-23T23:13:48.194Z,2.73
2018-04-23T23:16:16.474Z,3.30
2018-04-23T23:18:44.747Z,3.00
2018-04-23T23:21:13.034Z,2.90
2018-04-23T23:23:42.269Z,2.40
2018-04-23T23:26:10.550Z,3.57
2018-04-23T23:28:38.847Z,2.67
2018-04-23T23:31:07.127Z,3.33
2018-04-23T23:33:35.410Z,2.77
2018-04-23T23:36:03.683Z,2.80
2018-04-23T23:38:32.436Z,2.90
2018-04-23T23:41:00.611Z,3.07
2018-04-23T23:43:28.887Z,3.10
2018-04-23T23:45:57.170Z,2.57
2018-04-23T23:48:25.442Z,2.70
2018-04-23T23:50:53.723Z,2.70
2018-04-23T23:53:22.022Z,3.03
2018-04-23T23:55:50.314Z,2.40
2018-04-23T23:58:18.610Z,3.17
